Time;durP1;ratioP1;P1;durP2;ratioP2;P2;SDS_P1;SDS_P2;PMS_P1;PMS_P2;Temp;Humidity;BMP_temperature;BMP_pressure;BME280_temperature;BME280_humidity;BME280_pressure;Samples;Min_cycle;Max_cycle;Signal;HPM_P1;HPM_P2
2023/08/24 00:01:16;;;;;;;5.03;3.57;;;22.40;79.60;;;;;;4960796;28;20639;-77
2023/08/24 00:03:45;;;;;;;6.30;3.17;;;22.40;80.00;;;;;;4956967;29;20208;-77
2023/08/24 00:06:12;;;;;;;6.13;3.03;;;22.40;80.80;;;;;;4959753;28;20188;-77
2023/08/24 00:08:38;;;;;;;4.20;3.33;;;22.30;81.00;;;;;;4967298;28;20687;-77
2023/08/24 00:11:04;;;;;;;5.47;2.87;;;22.30;81.60;;;;;;4956963;28;21137;-77
2023/08/24 00:13:30;;;;;;;4.40;3.27;;;22.30;82.10;;;;;;4953170;29;20227;-77
2023/08/24 00:15:56;;;;;;;5.33;2.70;;;22.30;83.00;;;;;;4953193;28;20673;-77
2023/08/24 00:18:22;;;;;;;3.50;2.53;;;22.30;83.50;;;;;;4953227;29;20655;-77
2023/08/24 00:20:49;;;;;;;5.37;2.40;;;22.30;84.10;;;;;;4954208;28;20598;-77
2023/08/24 00:23:15;;;;;;;4.13;2.87;;;22.30;84.70;;;;;;4954266;28;21056;-77
2023/08/24 00:25:43;;;;;;;5.63;2.40;;;22.30;85.40;;;;;;4952946;28;20678;-77
2023/08/24 00:28:09;;;;;;;4.47;3.33;;;22.30;86.00;;;;;;4954353;28;20650;-77
2023/08/24 00:30:37;;;;;;;4.60;2.50;;;22.30;86.60;;;;;;4952868;28;20600;-77
2023/08/24 00:33:03;;;;;;;3.70;2.67;;;22.30;87.20;;;;;;4961070;28;20619;-77
2023/08/24 00:35:28;;;;;;;3.40;2.30;;;22.30;87.70;;;;;;4952599;29;20590;-77
2023/08/24 00:37:55;;;;;;;4.30;2.87;;;22.30;88.50;;;;;;4952632;28;21164;-77
2023/08/24 00:40:21;;;;;;;3.60;2.70;;;22.30;89.10;;;;;;4966752;28;20187;-77
2023/08/24 00:42:47;;;;;;;5.43;2.50;;;22.30;89.90;;;;;;4971711;28;20723;-77
2023/08/24 00:45:13;;;;;;;4.17;1.90;;;22.30;90.30;;;;;;4971945;28;20566;-77
2023/08/24 00:47:42;;;;;;;4.17;2.27;;;22.30;90.90;;;;;;4955882;28;20310;-77
2023/08/24 00:50:09;;;;;;;5.30;2.40;;;22.30;91.20;;;;;;4940117;28;20997;-77
2023/08/24 00:52:39;;;;;;;3.10;2.10;;;22.30;91.40;;;;;;4963942;28;20667;-77
2023/08/24 00:55:05;;;;;;;4.43;2.37;;;22.30;91.90;;;;;;4944655;29;20576;-77
2023/08/24 00:57:32;;;;;;;4.70;2.83;;;22.30;92.10;;;;;;4957005;28;20700;-77
2023/08/24 01:00:05;;;;;;;5.17;2.57;;;22.30;92.70;;;;;;4963486;28;20571;-77
2023/08/24 01:02:30;;;;;;;3.80;2.50;;;22.30;93.00;;;;;;4956980;28;20612;-77
2023/08/24 01:04:56;;;;;;;4.00;2.40;;;22.30;93.30;;;;;;4951937;28;20644;-77
2023/08/24 01:07:22;;;;;;;3.80;1.90;;;22.20;93.60;;;;;;4967393;28;20215;-77
2023/08/24 01:09:48;;;;;;;3.50;2.47;;;22.20;93.90;;;;;;4954066;28;20595;-77
2023/08/24 01:12:35;;;;;;;3.30;1.87;;;22.20;95.70;;;;;;4936308;29;20359;-77
2023/08/24 01:15:09;;;;;;;6.57;2.47;;;22.20;95.80;;;;;;4951889;28;20642;-78
2023/08/24 01:17:38;;;;;;;4.50;2.77;;;22.20;95.80;;;;;;4955178;28;20588;-77
2023/08/24 01:20:06;;;;;;;3.30;1.90;;;22.20;95.80;;;;;;4962313;28;20639;-78
2023/08/24 01:22:46;;;;;;;6.80;2.37;;;22.20;96.10;;;;;;4975529;28;20678;-77
2023/08/24 01:25:12;;;;;;;5.27;2.07;;;22.20;96.70;;;;;;4961622;28;20594;-76
2023/08/24 01:27:39;;;;;;;4.37;2.63;;;22.20;96.70;;;;;;4961459;28;20643;-77
2023/08/24 01:30:06;;;;;;;4.30;2.00;;;22.20;97.00;;;;;;4945551;29;20587;-76
2023/08/24 01:32:35;;;;;;;3.40;2.10;;;22.20;97.30;;;;;;4951877;29;20655;-76
2023/08/24 01:35:08;;;;;;;2.73;2.00;;;22.10;97.60;;;;;;4952724;28;20621;-76
2023/08/24 01:37:35;;;;;;;3.97;3.07;;;22.10;98.70;;;;;;4943261;28;20599;-77
2023/08/24 01:40:14;;;;;;;4.20;2.43;;;22.10;99.20;;;;;;4971618;28;20677;-77
2023/08/24 01:42:51;;;;;;;9.20;2.40;;;22.10;99.50;;;;;;4970859;28;20669;-76
2023/08/24 01:45:18;;;;;;;4.40;2.50;;;22.10;99.60;;;;;;4970964;28;20591;-76
2023/08/24 01:47:48;;;;;;;4.57;2.40;;;22.10;99.60;;;;;;4970905;28;20642;-76
2023/08/24 01:50:13;;;;;;;9.50;3.63;;;22.10;99.80;;;;;;4958558;28;20600;-76
2023/08/24 01:52:40;;;;;;;3.87;2.20;;;22.10;99.90;;;;;;4951266;28;21357;-76
2023/08/24 01:55:06;;;;;;;3.63;2.00;;;22.10;99.90;;;;;;4960740;28;20318;-76
2023/08/24 01:57:32;;;;;;;4.53;2.40;;;22.10;99.90;;;;;;4972141;28;20598;-77
2023/08/24 01:59:58;;;;;;;4.10;2.60;;;22.00;99.90;;;;;;4971133;28;20587;-76
2023/08/24 02:02:24;;;;;;;2.83;1.90;;;22.00;99.90;;;;;;4970773;28;21208;-76
2023/08/24 02:04:50;;;;;;;3.70;2.10;;;22.00;99.90;;;;;;4968691;28;20180;-77
2023/08/24 02:07:16;;;;;;;6.03;2.10;;;22.00;99.90;;;;;;4932610;28;20682;-76
2023/08/24 02:09:42;;;;;;;6.00;2.80;;;22.00;99.90;;;;;;4970828;28;21443;-77
2023/08/24 02:12:08;;;;;;;4.60;2.23;;;21.90;99.90;;;;;;4952581;28;20717;-76
2023/08/24 02:14:34;;;;;;;6.93;3.27;;;21.90;99.90;;;;;;4951233;28;20195;-77
2023/08/24 02:16:59;;;;;;;4.00;2.47;;;21.90;99.90;;;;;;4953205;28;20180;-76
2023/08/24 02:19:25;;;;;;;5.43;2.90;;;21.90;99.90;;;;;;4951494;29;20180;-76
2023/08/24 02:21:50;;;;;;;4.73;2.30;;;21.90;99.90;;;;;;4935234;29;20602;-77
2023/08/24 02:24:16;;;;;;;3.50;2.30;;;21.90;99.90;;;;;;4951314;29;20244;-77
2023/08/24 02:26:42;;;;;;;3.63;2.27;;;21.90;99.90;;;;;;4951306;28;20226;-77
2023/08/24 02:29:09;;;;;;;4.93;2.50;;;21.90;99.90;;;;;;4936064;28;20214;-76
2023/08/24 02:31:34;;;;;;;4.30;2.37;;;21.90;99.90;;;;;;4963481;28;20592;-76
2023/08/24 02:34:00;;;;;;;2.27;1.53;;;21.90;99.90;;;;;;4954844;28;20580;-76
2023/08/24 02:36:28;;;;;;;3.60;2.40;;;21.90;99.90;;;;;;4970720;28;20530;-76
2023/08/24 02:38:54;;;;;;;7.00;4.33;;;21.80;99.90;;;;;;4970565;28;20595;-77
2023/08/24 02:41:20;;;;;;;3.97;2.13;;;21.90;99.90;;;;;;4954691;28;21148;-76
2023/08/24 02:43:45;;;;;;;7.03;2.27;;;21.90;99.90;;;;;;4971268;28;20242;-77
2023/08/24 02:46:11;;;;;;;4.43;2.70;;;21.90;99.90;;;;;;4970513;28;20568;-77
2023/08/24 02:48:37;;;;;;;4.80;2.20;;;21.90;99.90;;;;;;4963475;28;20639;-77
2023/08/24 02:51:04;;;;;;;4.87;2.40;;;21.90;99.90;;;;;;4952451;28;20769;-77
2023/08/24 02:53:30;;;;;;;4.90;2.40;;;21.90;99.90;;;;;;4965115;28;20681;-76
2023/08/24 02:55:56;;;;;;;3.40;2.07;;;21.90;99.90;;;;;;4970569;28;20613;-76
2023/08/24 02:58:22;;;;;;;3.00;1.80;;;21.90;99.90;;;;;;4970634;28;20186;-77
2023/08/24 03:00:48;;;;;;;4.40;2.40;;;22.00;99.90;;;;;;4970224;28;20595;-76
2023/08/24 03:03:15;;;;;;;2.23;2.03;;;22.00;99.90;;;;;;4970386;28;20710;-77
2023/08/24 03:05:41;;;;;;;3.70;2.43;;;22.00;99.90;;;;;;4955917;28;20176;-77
2023/08/24 03:08:07;;;;;;;5.07;2.17;;;22.00;99.90;;;;;;4961796;28;20642;-77
2023/08/24 03:10:36;;;;;;;4.10;2.10;;;22.00;99.90;;;;;;4971818;28;20591;-77
2023/08/24 03:13:02;;;;;;;2.60;1.83;;;22.10;99.90;;;;;;4971373;28;20986;-76
2023/08/24 03:15:28;;;;;;;3.77;2.07;;;22.10;99.90;;;;;;4969808;28;20587;-76
2023/08/24 03:17:54;;;;;;;3.20;2.03;;;22.10;99.90;;;;;;4974596;28;20587;-76
2023/08/24 03:20:19;;;;;;;3.20;1.97;;;22.10;99.90;;;;;;4975507;28;20215;-76
2023/08/24 03:22:45;;;;;;;4.37;2.47;;;22.10;99.90;;;;;;4972054;28;20208;-77
2023/08/24 03:25:11;;;;;;;3.90;2.37;;;22.10;99.90;;;;;;4965879;28;20612;-76
2023/08/24 03:27:39;;;;;;;3.13;2.00;;;22.10;99.90;;;;;;4970043;28;20196;-76
2023/08/24 03:30:05;;;;;;;4.13;2.27;;;22.10;99.90;;;;;;4961470;28;20588;-76
2023/08/24 03:32:31;;;;;;;3.20;2.40;;;22.10;99.90;;;;;;4950968;28;20205;-76
2023/08/24 03:35:02;;;;;;;3.07;2.40;;;22.10;99.90;;;;;;4952002;28;21173;-76
2023/08/24 03:37:28;;;;;;;3.83;2.47;;;22.10;99.90;;;;;;4962045;28;20610;-76
2023/08/24 03:39:54;;;;;;;3.67;2.50;;;22.20;99.90;;;;;;4963012;28;20583;-77
2023/08/24 03:42:20;;;;;;;2.87;2.00;;;22.10;99.90;;;;;;4974112;28;20222;-78
2023/08/24 03:44:45;;;;;;;6.10;1.40;;;22.20;99.90;;;;;;4972955;28;20202;-77
2023/08/24 03:47:11;;;;;;;1.90;1.67;;;22.20;99.90;;;;;;4972995;28;20597;-77
2023/08/24 03:49:37;;;;;;;4.17;2.60;;;22.20;99.90;;;;;;4973040;28;20187;-77
2023/08/24 03:52:03;;;;;;;2.57;1.90;;;22.20;99.90;;;;;;4972950;28;20203;-77
2023/08/24 03:54:29;;;;;;;2.70;2.40;;;22.30;99.90;;;;;;4972831;28;20622;-77
2023/08/24 03:56:55;;;;;;;3.10;2.30;;;22.30;99.90;;;;;;4974201;28;20583;-77
2023/08/24 03:59:20;;;;;;;3.20;2.43;;;22.40;99.90;;;;;;4973063;28;20187;-77
2023/08/24 04:01:46;;;;;;;3.30;2.03;;;22.40;99.90;;;;;;4972728;28;20171;-77
2023/08/24 04:04:12;;;;;;;4.30;2.33;;;22.50;99.90;;;;;;4973954;28;20272;-77
2023/08/24 04:06:37;;;;;;;3.10;2.10;;;22.50;99.90;;;;;;4973220;28;20179;-77
2023/08/24 04:09:06;;;;;;;3.40;2.40;;;22.60;99.90;;;;;;4954894;28;20259;-77
2023/08/24 04:11:31;;;;;;;2.50;1.77;;;22.60;99.90;;;;;;4953364;28;20277;-77
2023/08/24 04:13:57;;;;;;;3.80;2.47;;;22.60;99.90;;;;;;4953025;29;21067;-77
2023/08/24 04:16:23;;;;;;;3.80;2.30;;;22.60;99.90;;;;;;4953512;29;20267;-78
2023/08/24 04:18:48;;;;;;;5.33;1.87;;;22.60;99.90;;;;;;4951860;28;20188;-77
2023/08/24 04:21:14;;;;;;;5.63;2.50;;;22.60;99.90;;;;;;4964622;28;20192;-77
2023/08/24 04:23:44;;;;;;;4.30;2.10;;;22.60;99.90;;;;;;4972285;28;20207;-77
2023/08/24 04:26:11;;;;;;;4.37;2.73;;;22.60;99.90;;;;;;4961757;28;20180;-77
2023/08/24 04:28:37;;;;;;;7.60;2.90;;;22.60;99.90;;;;;;4959127;28;20634;-77
2023/08/24 04:31:03;;;;;;;5.73;2.20;;;22.60;99.90;;;;;;4973103;28;20586;-77
2023/08/24 04:33:29;;;;;;;2.93;2.20;;;22.50;99.90;;;;;;4961810;28;20612;-77
2023/08/24 04:35:54;;;;;;;7.20;2.60;;;22.50;99.90;;;;;;4956782;28;20512;-77
2023/08/24 04:38:20;;;;;;;8.10;2.73;;;22.40;99.90;;;;;;4972974;28;20260;-77
2023/08/24 04:40:48;;;;;;;4.57;2.33;;;22.40;99.90;;;;;;4955969;29;20177;-78
2023/08/24 04:43:14;;;;;;;4.70;2.30;;;22.30;99.90;;;;;;4968601;28;20243;-77
2023/08/24 04:45:40;;;;;;;4.77;2.80;;;22.20;99.90;;;;;;4970339;28;20599;-76
2023/08/24 04:48:06;;;;;;;5.63;3.07;;;22.10;99.90;;;;;;4957525;28;20270;-76
2023/08/24 04:50:31;;;;;;;4.57;2.93;;;22.00;99.90;;;;;;4973470;28;20211;-76
2023/08/24 04:52:57;;;;;;;4.50;3.10;;;21.90;99.90;;;;;;4971925;28;20627;-77
2023/08/24 04:55:23;;;;;;;6.47;3.40;;;21.80;99.90;;;;;;4966799;28;20218;-77
2023/08/24 04:57:49;;;;;;;7.93;3.50;;;21.60;99.90;;;;;;4956440;28;20192;-77
2023/08/24 05:00:16;;;;;;;4.07;3.10;;;21.40;99.90;;;;;;4971647;28;20587;-77
2023/08/24 05:02:45;;;;;;;9.23;3.90;;;21.20;99.90;;;;;;4958321;28;20200;-77
2023/08/24 05:05:13;;;;;;;7.80;4.07;;;21.10;99.90;;;;;;4962505;28;20976;-77
2023/08/24 05:07:40;;;;;;;2.83;2.50;;;20.90;99.90;;;;;;4971888;28;20726;-77
2023/08/24 05:10:07;;;;;;;4.03;3.30;;;20.80;99.90;;;;;;4953539;28;20588;-77
2023/08/24 05:12:35;;;;;;;6.40;3.20;;;20.70;99.90;;;;;;4956332;28;20623;-77
2023/08/24 05:15:02;;;;;;;5.37;2.73;;;20.60;99.90;;;;;;4951171;28;20943;-77
2023/08/24 05:17:28;;;;;;;5.03;4.10;;;20.60;99.90;;;;;;4970171;28;20624;-76
2023/08/24 05:19:54;;;;;;;6.30;4.00;;;20.50;99.90;;;;;;4953534;28;20979;-75
2023/08/24 05:22:20;;;;;;;4.57;3.13;;;20.50;99.90;;;;;;4952257;28;20620;-75
2023/08/24 05:24:46;;;;;;;7.00;2.73;;;20.50;99.90;;;;;;4951865;29;20634;-76
2023/08/24 05:27:12;;;;;;;5.43;3.90;;;20.40;99.90;;;;;;4956860;28;20200;-76
2023/08/24 05:29:37;;;;;;;6.60;3.40;;;20.40;99.90;;;;;;4958661;28;20592;-75
2023/08/24 05:32:03;;;;;;;5.30;3.13;;;20.40;99.90;;;;;;4960873;28;20188;-75
2023/08/24 05:34:29;;;;;;;7.10;4.00;;;20.40;99.90;;;;;;4958682;28;20259;-75
2023/08/24 05:36:55;;;;;;;6.93;3.73;;;20.40;99.90;;;;;;4951817;29;21228;-75
2023/08/24 05:39:22;;;;;;;5.77;3.77;;;20.40;99.90;;;;;;4955373;28;20172;-75
2023/08/24 05:41:51;;;;;;;6.20;3.83;;;20.40;99.90;;;;;;4958082;28;20219;-75
2023/08/24 05:44:17;;;;;;;7.70;3.47;;;20.40;99.90;;;;;;4953693;28;20590;-75
2023/08/24 05:46:43;;;;;;;3.80;2.97;;;20.40;99.90;;;;;;4952392;28;20600;-75
2023/08/24 05:49:08;;;;;;;4.27;3.17;;;20.40;99.90;;;;;;4954072;28;20635;-75
2023/08/24 05:51:34;;;;;;;4.73;2.90;;;20.40;99.90;;;;;;4958850;28;20263;-75
2023/08/24 05:54:00;;;;;;;6.70;3.70;;;20.50;99.90;;;;;;4960524;28;20184;-75
2023/08/24 05:56:26;;;;;;;7.80;3.63;;;20.50;99.90;;;;;;4959006;28;20173;-75
2023/08/24 05:58:51;;;;;;;4.90;3.60;;;20.50;99.90;;;;;;4951865;29;20591;-76
2023/08/24 06:01:17;;;;;;;5.03;3.30;;;20.50;99.90;;;;;;4952975;28;20184;-75
2023/08/24 06:03:43;;;;;;;4.80;3.60;;;20.50;99.90;;;;;;4959640;28;20200;-75
2023/08/24 06:06:09;;;;;;;4.00;3.57;;;20.60;99.90;;;;;;4951772;29;20176;-75
2023/08/24 06:08:35;;;;;;;5.60;3.37;;;20.60;99.90;;;;;;4957260;28;20647;-75
2023/08/24 06:11:01;;;;;;;4.47;3.87;;;20.70;99.90;;;;;;4963542;28;20645;-75
2023/08/24 06:13:27;;;;;;;10.03;4.03;;;20.70;99.90;;;;;;4951760;28;20192;-75
2023/08/24 06:15:56;;;;;;;4.53;3.00;;;20.80;99.90;;;;;;4952435;29;21157;-75
2023/08/24 06:18:22;;;;;;;4.70;3.67;;;20.90;99.90;;;;;;4948094;28;20201;-75
2023/08/24 06:20:49;;;;;;;6.27;3.53;;;20.90;99.90;;;;;;4957143;28;21111;-75
2023/08/24 06:23:18;;;;;;;4.37;3.10;;;21.00;99.90;;;;;;4962358;28;20239;-75
2023/08/24 06:25:44;;;;;;;6.50;3.63;;;21.10;99.90;;;;;;4956376;28;20603;-75
2023/08/24 06:28:11;;;;;;;10.93;4.00;;;21.30;99.90;;;;;;4952554;28;20702;-74
2023/08/24 06:30:42;;;;;;;5.23;3.47;;;21.40;99.90;;;;;;4952007;29;20918;-75
2023/08/24 06:33:10;;;;;;;7.53;4.20;;;21.60;99.90;;;;;;4970711;28;20969;-75
2023/08/24 06:35:36;;;;;;;9.67;4.30;;;22.10;99.90;;;;;;4971933;28;20579;-74
2023/08/24 06:38:03;;;;;;;9.70;3.43;;;22.80;99.90;;;;;;4970653;28;20623;-73
2023/08/24 06:40:29;;;;;;;6.33;3.37;;;23.60;99.90;;;;;;4954574;28;20945;-74
2023/08/24 06:42:55;;;;;;;9.17;3.53;;;24.10;99.90;;;;;;4970538;28;20639;-73
2023/08/24 06:45:20;;;;;;;5.43;3.13;;;24.70;99.90;;;;;;4968520;28;20588;-74
2023/08/24 06:47:52;;;;;;;3.80;3.20;;;25.20;99.90;;;;;;4952977;28;20271;-81
2023/08/24 06:50:19;;;;;;;5.43;2.43;;;25.70;99.90;;;;;;4962665;28;20324;-81
2023/08/24 06:52:45;;;;;;;7.73;2.80;;;26.10;99.90;;;;;;4970217;28;20610;-81
2023/08/24 06:55:11;;;;;;;3.70;2.60;;;26.50;99.90;;;;;;4956551;28;20592;-80
2023/08/24 06:57:38;;;;;;;6.67;2.87;;;27.00;99.90;;;;;;4972264;28;20181;-80
2023/08/24 07:00:08;;;;;;;13.37;3.50;;;27.50;99.90;;;;;;4984445;28;20626;-80
2023/08/24 07:02:37;;;;;;;3.90;2.23;;;27.80;99.90;;;;;;4967735;28;20608;-80
2023/08/24 07:05:04;;;;;;;3.63;2.07;;;28.00;99.90;;;;;;4967817;28;20583;-79
2023/08/24 07:07:30;;;;;;;3.37;2.20;;;28.30;99.90;;;;;;4966096;28;20203;-78
2023/08/24 07:09:56;;;;;;;5.30;2.33;;;28.90;99.90;;;;;;4970351;28;21228;-80
2023/08/24 07:12:22;;;;;;;3.23;1.70;;;29.30;99.90;;;;;;4959416;29;20206;-79
2023/08/24 07:14:47;;;;;;;6.20;2.80;;;29.60;99.90;;;;;;4955280;28;20181;-79
2023/08/24 07:17:13;;;;;;;4.60;2.00;;;29.90;99.90;;;;;;4956822;29;20177;-80
2023/08/24 07:19:39;;;;;;;4.10;2.30;;;30.30;99.90;;;;;;4954834;28;20181;-79
2023/08/24 07:22:04;;;;;;;4.10;1.80;;;30.60;99.90;;;;;;4975442;28;20204;-77
2023/08/24 07:24:30;;;;;;;3.90;1.90;;;30.70;99.90;;;;;;4955409;28;20184;-78
2023/08/24 07:26:55;;;;;;;2.57;1.60;;;30.90;99.90;;;;;;4962493;28;20185;-79
2023/08/24 07:29:21;;;;;;;2.37;1.40;;;31.00;99.90;;;;;;4955916;28;20660;-78
2023/08/24 07:31:47;;;;;;;2.40;1.40;;;31.20;99.90;;;;;;4955748;29;20264;-77
2023/08/24 07:34:15;;;;;;;2.50;1.57;;;31.40;99.90;;;;;;4949215;28;20980;-78
2023/08/24 07:36:42;;;;;;;5.70;1.70;;;32.00;99.90;;;;;;4944577;29;21082;-78
2023/08/24 07:39:08;;;;;;;3.17;1.43;;;32.20;99.90;;;;;;4964996;29;20596;-78
2023/08/24 07:41:33;;;;;;;2.37;1.53;;;32.40;99.90;;;;;;4960486;28;20598;-78
2023/08/24 07:43:59;;;;;;;2.70;1.20;;;32.60;99.70;;;;;;4968538;28;20589;-78
2023/08/24 07:46:25;;;;;;;3.40;1.70;;;32.70;97.10;;;;;;4985315;28;20197;-77
2023/08/24 07:48:50;;;;;;;3.13;2.00;;;32.90;95.60;;;;;;4976424;28;20741;-77
2023/08/24 07:51:16;;;;;;;2.70;1.10;;;33.00;95.00;;;;;;4968805;28;20195;-77
2023/08/24 07:53:42;;;;;;;3.60;1.10;;;33.20;95.20;;;;;;4987926;28;20206;-79
2023/08/24 07:56:07;;;;;;;3.37;1.30;;;33.60;96.30;;;;;;4973953;28;20224;-79
2023/08/24 07:58:33;;;;;;;4.77;1.50;;;33.70;94.30;;;;;;4968885;28;20172;-79
2023/08/24 08:00:59;;;;;;;2.70;1.10;;;34.00;93.50;;;;;;4962240;28;20172;-79
2023/08/24 08:03:25;;;;;;;2.87;1.43;;;34.10;92.80;;;;;;4960547;28;20243;-79
2023/08/24 08:05:51;;;;;;;4.90;1.83;;;34.30;92.80;;;;;;4962639;28;21122;-79
2023/08/24 08:08:17;;;;;;;3.10;1.30;;;34.20;90.20;;;;;;4960499;29;20643;-80
2023/08/24 08:10:43;;;;;;;3.40;2.03;;;34.30;90.30;;;;;;4963948;28;20891;-76
2023/08/24 08:13:12;;;;;;;2.30;1.30;;;34.30;89.60;;;;;;4953743;28;20200;-75
2023/08/24 08:15:38;;;;;;;2.87;1.67;;;34.50;90.10;;;;;;4963151;28;20204;-75
2023/08/24 08:18:04;;;;;;;2.90;1.20;;;34.90;90.50;;;;;;4955790;28;21014;-75
2023/08/24 08:20:30;;;;;;;2.47;1.50;;;35.00;87.30;;;;;;4973755;28;20615;-75
2023/08/24 08:22:56;;;;;;;2.83;1.20;;;35.00;83.90;;;;;;4965005;28;21204;-75
2023/08/24 08:25:22;;;;;;;2.63;1.50;;;34.90;84.90;;;;;;4969991;28;20603;-76
2023/08/24 08:27:49;;;;;;;2.70;1.50;;;34.90;84.90;;;;;;4954171;28;20250;-75
2023/08/24 08:30:19;;;;;;;4.80;1.87;;;34.70;83.30;;;;;;4962546;28;20659;-75
2023/08/24 08:32:45;;;;;;;2.73;1.40;;;34.70;82.60;;;;;;4960029;28;20670;-75
2023/08/24 08:35:11;;;;;;;3.00;1.40;;;34.70;82.70;;;;;;4964389;28;20592;-75
2023/08/24 08:37:37;;;;;;;2.93;1.20;;;34.70;81.10;;;;;;4958761;28;20217;-75
2023/08/24 08:40:10;;;;;;;2.47;1.20;;;34.70;80.10;;;;;;4964533;28;20686;-75
2023/08/24 08:42:36;;;;;;;2.23;1.40;;;34.90;77.60;;;;;;4950166;28;20222;-75
2023/08/24 08:45:07;;;;;;;2.33;1.40;;;35.00;81.40;;;;;;4956467;28;20599;-75
2023/08/24 08:47:32;;;;;;;6.03;1.33;;;35.10;78.80;;;;;;4949213;28;20666;-74
2023/08/24 08:50:02;;;;;;;3.50;0.90;;;35.20;77.50;;;;;;4972014;28;20595;-75
2023/08/24 08:52:28;;;;;;;2.10;1.13;;;35.20;76.70;;;;;;4952922;28;20192;-74
2023/08/24 08:54:54;;;;;;;4.27;1.50;;;35.20;77.00;;;;;;4968595;28;20591;-75
2023/08/24 08:57:22;;;;;;;3.90;1.13;;;35.40;77.10;;;;;;4964307;28;20243;-75
2023/08/24 08:59:50;;;;;;;2.53;1.30;;;35.40;76.00;;;;;;4972204;28;20319;-74
2023/08/24 09:02:23;;;;;;;2.90;1.20;;;35.60;75.80;;;;;;4971233;28;20634;-75
2023/08/24 09:04:51;;;;;;;2.13;1.30;;;35.90;75.70;;;;;;4958020;28;20588;-75
2023/08/24 09:07:16;;;;;;;2.70;1.10;;;36.10;75.80;;;;;;4952156;29;20600;-75
2023/08/24 09:09:43;;;;;;;2.80;1.20;;;36.30;73.80;;;;;;4953406;29;20690;-75
2023/08/24 09:12:09;;;;;;;2.43;1.10;;;36.60;72.60;;;;;;4968504;28;20208;-75
2023/08/24 09:14:35;;;;;;;5.10;1.37;;;36.90;73.80;;;;;;4952573;28;20675;-75
2023/08/24 09:17:02;;;;;;;2.13;1.03;;;37.30;74.00;;;;;;4968792;28;20583;-76
2023/08/24 09:19:32;;;;;;;2.43;1.20;;;37.80;75.30;;;;;;4961336;28;20592;-75
2023/08/24 09:21:59;;;;;;;2.20;1.23;;;38.10;69.80;;;;;;4959029;28;20722;-75
2023/08/24 09:24:35;;;;;;;3.00;1.40;;;38.20;68.00;;;;;;4970863;28;20987;-76
2023/08/24 09:27:18;;;;;;;2.90;1.30;;;38.20;59.60;;;;;;4956502;28;20996;-76
2023/08/24 09:29:52;;;;;;;2.90;1.27;;;38.10;62.00;;;;;;4954532;28;20584;-75
2023/08/24 09:32:23;;;;;;;2.40;1.33;;;37.80;60.60;;;;;;4964750;28;20622;-76
2023/08/24 09:34:49;;;;;;;2.10;1.10;;;37.80;62.20;;;;;;4975287;28;20599;-76
2023/08/24 09:37:15;;;;;;;2.83;1.10;;;37.70;61.30;;;;;;4966155;28;20623;-75
2023/08/24 09:39:42;;;;;;;2.90;1.30;;;37.70;61.00;;;;;;4977049;28;20586;-76
2023/08/24 09:42:08;;;;;;;2.70;1.10;;;37.70;59.80;;;;;;4976889;28;20738;-76
2023/08/24 09:44:34;;;;;;;3.70;1.20;;;37.50;57.70;;;;;;4976322;28;20611;-76
2023/08/24 09:46:59;;;;;;;2.30;1.30;;;37.20;57.30;;;;;;4966208;28;20615;-76
2023/08/24 09:49:28;;;;;;;2.63;1.20;;;36.90;57.90;;;;;;4956847;28;20188;-75
2023/08/24 09:51:57;;;;;;;2.07;1.10;;;36.70;57.80;;;;;;4951827;29;20194;-75
2023/08/24 09:54:27;;;;;;;3.07;1.63;;;36.60;58.50;;;;;;4952445;29;20599;-75
2023/08/24 09:56:56;;;;;;;3.30;1.17;;;36.40;58.50;;;;;;4952558;29;20610;-75
2023/08/24 09:59:24;;;;;;;4.20;2.63;;;36.10;59.00;;;;;;4961326;28;20602;-75
2023/08/24 10:01:51;;;;;;;2.13;1.17;;;35.90;58.80;;;;;;4966472;28;20587;-76
2023/08/24 10:04:29;;;;;;;4.60;1.30;;;35.70;59.40;;;;;;4956423;28;20671;-75
2023/08/24 10:07:11;;;;;;;1.97;1.20;;;35.40;59.40;;;;;;4962968;28;20755;-75
2023/08/24 10:09:56;;;;;;;2.20;1.50;;;35.20;60.00;;;;;;4953686;29;20688;-75
2023/08/24 10:12:26;;;;;;;2.00;1.10;;;35.00;60.10;;;;;;4951497;29;21292;-75
2023/08/24 10:15:13;;;;;;;4.10;1.50;;;34.90;61.50;;;;;;4952339;29;20603;-75
2023/08/24 10:17:40;;;;;;;3.43;1.40;;;34.80;60.90;;;;;;4952921;29;20591;-75
2023/08/24 10:20:08;;;;;;;2.07;1.40;;;34.70;61.10;;;;;;4953231;28;20584;-75
2023/08/24 10:22:36;;;;;;;2.10;1.30;;;34.60;61.90;;;;;;4971968;28;20630;-76
2023/08/24 10:25:02;;;;;;;2.57;1.30;;;34.50;62.30;;;;;;4971097;28;20598;-75
2023/08/24 10:27:29;;;;;;;2.50;1.30;;;34.40;62.50;;;;;;4956632;28;20632;-75
2023/08/24 10:29:56;;;;;;;2.63;1.20;;;34.20;61.10;;;;;;4970806;28;20601;-75
2023/08/24 10:32:23;;;;;;;2.90;1.53;;;33.80;61.00;;;;;;4966908;28;20646;-75
2023/08/24 10:34:49;;;;;;;4.07;1.50;;;33.60;61.70;;;;;;4971470;28;20955;-75
2023/08/24 10:37:14;;;;;;;4.50;1.70;;;33.40;61.70;;;;;;4976617;28;20591;-75
2023/08/24 10:39:47;;;;;;;3.30;1.80;;;33.20;60.70;;;;;;4959549;28;20911;-75
2023/08/24 10:42:14;;;;;;;3.93;1.77;;;32.80;59.80;;;;;;4958087;29;20217;-75
2023/08/24 10:44:43;;;;;;;3.30;1.70;;;32.60;60.70;;;;;;4971225;28;20592;-75
2023/08/24 10:47:15;;;;;;;2.83;1.03;;;32.50;61.50;;;;;;4976624;28;20588;-76
2023/08/24 10:49:56;;;;;;;3.60;1.40;;;32.40;62.10;;;;;;4971703;28;20590;-76
2023/08/24 10:52:23;;;;;;;3.10;1.40;;;32.30;61.80;;;;;;4955313;29;20624;-74
2023/08/24 10:54:53;;;;;;;2.73;1.50;;;32.30;62.90;;;;;;4968807;28;20693;-76
2023/08/24 10:57:23;;;;;;;3.90;1.20;;;32.30;63.20;;;;;;4958264;28;20641;-75
2023/08/24 11:00:00;;;;;;;2.20;1.17;;;32.30;63.40;;;;;;4966028;28;20601;-76
2023/08/24 11:02:26;;;;;;;5.07;2.43;;;32.30;62.80;;;;;;4956453;28;20620;-75
2023/08/24 11:05:06;;;;;;;4.97;2.80;;;32.30;63.20;;;;;;4955468;29;20590;-75
2023/08/24 11:07:32;;;;;;;3.63;1.20;;;32.20;61.30;;;;;;4956032;29;20642;-75
2023/08/24 11:09:57;;;;;;;3.57;1.50;;;32.10;61.80;;;;;;4961604;28;21396;-75
2023/08/24 11:12:23;;;;;;;6.83;1.60;;;32.10;62.00;;;;;;4966301;28;20205;-74
2023/08/24 11:14:54;;;;;;;4.07;1.27;;;32.00;62.50;;;;;;4968102;28;20666;-75
2023/08/24 11:17:21;;;;;;;3.27;1.67;;;32.00;62.90;;;;;;4966366;28;20183;-75
2023/08/24 11:19:49;;;;;;;4.87;1.70;;;31.90;62.50;;;;;;5003283;23;20842;-76
2023/08/24 11:22:21;;;;;;;3.90;1.80;;;31.90;62.70;;;;;;4989922;28;20586;-76
2023/08/24 11:24:46;;;;;;;3.90;1.80;;;31.80;62.50;;;;;;4964833;28;20658;-76
2023/08/24 11:27:12;;;;;;;3.20;1.50;;;31.70;63.20;;;;;;4964331;28;20640;-75
2023/08/24 11:29:38;;;;;;;3.70;1.50;;;31.50;62.40;;;;;;4980143;28;20195;-75
2023/08/24 11:32:04;;;;;;;3.57;1.57;;;31.40;62.40;;;;;;4986082;28;20684;-75
2023/08/24 11:34:30;;;;;;;3.33;1.53;;;31.30;62.80;;;;;;4980520;28;20522;-75
2023/08/24 11:36:56;;;;;;;3.70;1.80;;;31.20;63.20;;;;;;4959417;28;20620;-76
2023/08/24 11:39:24;;;;;;;2.80;1.63;;;31.10;63.40;;;;;;4989248;28;21221;-75
2023/08/24 11:42:03;;;;;;;5.93;1.43;;;31.00;63.80;;;;;;4982710;28;20602;-76
2023/08/24 11:44:44;;;;;;;3.50;1.50;;;30.90;64.00;;;;;;4971456;28;20607;-75
2023/08/24 11:47:10;;;;;;;6.07;1.50;;;30.80;64.60;;;;;;4985354;28;20613;-76
2023/08/24 11:49:36;;;;;;;4.37;1.77;;;30.70;65.10;;;;;;4972417;28;20975;-75
2023/08/24 11:52:02;;;;;;;2.27;1.30;;;30.60;65.70;;;;;;4978908;28;20601;-76
2023/08/24 11:54:27;;;;;;;5.30;1.73;;;30.50;66.10;;;;;;4991924;28;20210;-75
2023/08/24 11:56:53;;;;;;;3.53;2.33;;;30.50;66.60;;;;;;4992351;28;20633;-75
2023/08/24 11:59:19;;;;;;;4.70;1.63;;;30.40;67.10;;;;;;4983983;28;20218;-75
2023/08/24 12:01:46;;;;;;;3.83;1.40;;;30.50;67.80;;;;;;4993332;28;20193;-76
2023/08/24 12:04:12;;;;;;;3.77;1.53;;;30.60;68.70;;;;;;4991769;28;20602;-75
2023/08/24 12:06:39;;;;;;;3.90;1.30;;;30.70;69.10;;;;;;4991852;28;20642;-75
2023/08/24 12:09:06;;;;;;;4.50;1.50;;;30.80;69.30;;;;;;4983820;28;20239;-75
2023/08/24 12:11:36;;;;;;;2.97;1.50;;;31.00;69.40;;;;;;4981238;28;20584;-75
2023/08/24 12:14:01;;;;;;;3.30;1.23;;;31.00;69.20;;;;;;4985271;28;20622;-75
2023/08/24 12:16:32;;;;;;;2.10;1.10;;;31.20;69.70;;;;;;4981935;28;20621;-75
2023/08/24 12:19:00;;;;;;;2.80;0.90;;;31.20;69.70;;;;;;4988076;28;20274;-75
2023/08/24 12:21:27;;;;;;;2.20;1.23;;;31.30;70.30;;;;;;4941367;28;20586;-74
2023/08/24 12:24:05;;;;;;;3.50;1.50;;;31.30;70.20;;;;;;4991481;28;20663;-75
2023/08/24 12:26:32;;;;;;;6.83;1.50;;;31.30;69.80;;;;;;4990146;28;20768;-75
2023/08/24 12:29:06;;;;;;;3.10;1.80;;;31.10;69.70;;;;;;4984151;28;20650;-75
2023/08/24 12:31:33;;;;;;;3.27;1.30;;;31.00;70.10;;;;;;4989875;28;20650;-75
2023/08/24 12:33:59;;;;;;;3.30;1.57;;;30.80;70.40;;;;;;4991285;28;20579;-75
2023/08/24 12:36:27;;;;;;;3.30;1.80;;;30.60;70.70;;;;;;4991317;28;20660;-75
2023/08/24 12:38:53;;;;;;;4.27;1.93;;;30.40;71.30;;;;;;4992689;28;20705;-75
2023/08/24 12:41:19;;;;;;;3.07;1.53;;;30.10;71.70;;;;;;4959056;28;21223;-74
2023/08/24 12:43:46;;;;;;;3.13;1.70;;;29.90;72.80;;;;;;4991271;28;21166;-75
2023/08/24 12:46:11;;;;;;;4.17;1.43;;;29.60;73.90;;;;;;4983970;28;20604;-75